RYR96KK LIPH-EBCI
Flight info
| Callsign | RYR96KK |
|---|---|
| Flight time | 1h 13m |
| Altitude | 18000 |
| Route | ROKIB Z906 NAXAV/N0457F360 DCT UNIMI DCT MOGTI DCT KPT L608 KUNOD DCT IDOVI Z104 ODVUX/N0450F280 Z104 GESLO N852 LNO |
| Aircraft | B738/M-SDE2E3FGHIRWXY/LB1 |
Departure
| Time | 2026-04-24 12:11 |
|---|---|
| Airport | Treviso Airport (LIPH) |
Arrival
| Time | 2026-04-24 13:24 |
|---|---|
| Airport | Brussels South Charleroi Airport (EBCI) |
| Time | Latitude | Longitude | Altitude | Speed | Heading |
|---|---|---|---|---|---|
| 2026-04-24 11:42 | 45.65383 | 12.20430 | 61 ft | 0 kts | 338° |
| 2026-04-24 12:01 | 45.65378 | 12.20437 | 61 ft | 2 kts | 249° |
| 2026-04-24 12:01 | 45.65369 | 12.20450 | 78 ft | 2 kts | 359° |
| 2026-04-24 12:02 | 45.65353 | 12.20448 | 52 ft | 2 kts | 12° |
| 2026-04-24 12:02 | 45.65337 | 12.20441 | 60 ft | 2 kts | 22° |
| 2026-04-24 12:02 | 45.65322 | 12.20430 | 55 ft | 2 kts | 36° |
| 2026-04-24 12:02 | 45.65314 | 12.20419 | 53 ft | 1 kts | 57° |
| 2026-04-24 12:03 | 45.65313 | 12.20418 | 53 ft | 0 kts | 60° |
| 2026-04-24 12:06 | 45.65320 | 12.20447 | 57 ft | 7 kts | 70° |
| 2026-04-24 12:06 | 45.65349 | 12.20557 | 55 ft | 16 kts | 69° |
| 2026-04-24 12:06 | 45.65373 | 12.20712 | 58 ft | 17 kts | 121° |
| 2026-04-24 12:07 | 45.65271 | 12.20780 | 59 ft | 16 kts | 160° |
| 2026-04-24 12:07 | 45.65195 | 12.20704 | 59 ft | 16 kts | 248° |
| 2026-04-24 12:07 | 45.65146 | 12.20520 | 59 ft | 24 kts | 249° |
| 2026-04-24 12:07 | 45.65079 | 12.20270 | 60 ft | 27 kts | 249° |
| 2026-04-24 12:08 | 45.65015 | 12.20026 | 57 ft | 25 kts | 249° |
| 2026-04-24 12:08 | 45.64954 | 12.19797 | 58 ft | 24 kts | 249° |
| 2026-04-24 12:08 | 45.64893 | 12.19567 | 57 ft | 25 kts | 249° |
| 2026-04-24 12:08 | 45.64832 | 12.19338 | 63 ft | 25 kts | 249° |
| 2026-04-24 12:09 | 45.64768 | 12.19095 | 60 ft | 27 kts | 249° |
| 2026-04-24 12:09 | 45.64698 | 12.18831 | 58 ft | 28 kts | 249° |
| 2026-04-24 12:09 | 45.64631 | 12.18581 | 64 ft | 26 kts | 249° |
| 2026-04-24 12:09 | 45.64569 | 12.18347 | 62 ft | 24 kts | 249° |
| 2026-04-24 12:10 | 45.64513 | 12.18132 | 67 ft | 21 kts | 250° |
| 2026-04-24 12:10 | 45.64507 | 12.17976 | 67 ft | 15 kts | 287° |
| 2026-04-24 12:10 | 45.64471 | 12.17963 | 68 ft | 10 kts | 91° |
| 2026-04-24 12:11 | 45.64691 | 12.18807 | 63 ft | 110 kts | 69° |
| 2026-04-24 12:11 | 45.65042 | 12.20117 | 87 ft | 167 kts | 69° |
| 2026-04-24 12:11 | 45.65468 | 12.21661 | 856 ft | 164 kts | 72° |
| 2026-04-24 12:11 | 45.65666 | 12.23324 | 1574 ft | 175 kts | 86° |
| 2026-04-24 12:12 | 45.65772 | 12.25092 | 2335 ft | 185 kts | 84° |
| 2026-04-24 12:12 | 45.65947 | 12.26949 | 2999 ft | 196 kts | 82° |
| 2026-04-24 12:12 | 45.66125 | 12.28996 | 3552 ft | 211 kts | 83° |
| 2026-04-24 12:12 | 45.66303 | 12.31174 | 3879 ft | 233 kts | 79° |
| 2026-04-24 12:13 | 45.67065 | 12.33247 | 4192 ft | 249 kts | 39° |
| 2026-04-24 12:13 | 45.68652 | 12.34303 | 4716 ft | 263 kts | 5° |
| 2026-04-24 12:13 | 45.70477 | 12.34039 | 5472 ft | 266 kts | 337° |
| 2026-04-24 12:13 | 45.71964 | 12.32509 | 6308 ft | 270 kts | 309° |
| 2026-04-24 12:14 | 45.72985 | 12.30223 | 7129 ft | 272 kts | 298° |
| 2026-04-24 12:14 | 45.73822 | 12.27782 | 7951 ft | 277 kts | 296° |
| 2026-04-24 12:14 | 45.74659 | 12.25236 | 8589 ft | 286 kts | 296° |
| 2026-04-24 12:14 | 45.75491 | 12.22675 | 9561 ft | 283 kts | 296° |
| 2026-04-24 12:15 | 45.76343 | 12.20091 | 10260 ft | 290 kts | 297° |
| 2026-04-24 12:15 | 45.77256 | 12.17402 | 10563 ft | 312 kts | 297° |
| 2026-04-24 12:15 | 45.78250 | 12.14504 | 10753 ft | 336 kts | 298° |
| 2026-04-24 12:15 | 45.79317 | 12.11395 | 10908 ft | 358 kts | 297° |
| 2026-04-24 12:16 | 45.80436 | 12.08125 | 11304 ft | 370 kts | 298° |
| 2026-04-24 12:16 | 45.81558 | 12.04835 | 11954 ft | 373 kts | 298° |
| 2026-04-24 12:16 | 45.82698 | 12.01481 | 12699 ft | 376 kts | 298° |
| 2026-04-24 12:16 | 45.83846 | 11.98095 | 13406 ft | 379 kts | 298° |
| 2026-04-24 12:17 | 45.85006 | 11.94674 | 14078 ft | 384 kts | 298° |
| 2026-04-24 12:17 | 45.86184 | 11.91195 | 14711 ft | 389 kts | 298° |
| 2026-04-24 12:17 | 45.87372 | 11.87687 | 15361 ft | 393 kts | 298° |
| 2026-04-24 12:17 | 45.88571 | 11.84141 | 16002 ft | 397 kts | 298° |
| 2026-04-24 12:18 | 45.89784 | 11.80548 | 16642 ft | 403 kts | 298° |
| 2026-04-24 12:18 | 45.91011 | 11.76909 | 17262 ft | 408 kts | 297° |
| 2026-04-24 12:18 | 45.92288 | 11.73243 | 17844 ft | 411 kts | 302° |
| 2026-04-24 12:18 | 45.94006 | 11.70010 | 18409 ft | 413 kts | 316° |
| 2026-04-24 12:19 | 45.96201 | 11.67364 | 18960 ft | 413 kts | 329° |
| 2026-04-24 12:19 | 45.98728 | 11.65415 | 19566 ft | 413 kts | 336° |
| 2026-04-24 12:19 | 46.01339 | 11.63632 | 20139 ft | 416 kts | 337° |
| 2026-04-24 12:19 | 46.03963 | 11.61874 | 20711 ft | 418 kts | 337° |
| 2026-04-24 12:20 | 46.06622 | 11.60081 | 21266 ft | 421 kts | 337° |
| 2026-04-24 12:20 | 46.09244 | 11.58293 | 21729 ft | 425 kts | 337° |
| 2026-04-24 12:20 | 46.11960 | 11.56418 | 22247 ft | 427 kts | 336° |
| 2026-04-24 12:20 | 46.14649 | 11.54547 | 22767 ft | 431 kts | 336° |
| 2026-04-24 12:21 | 46.17329 | 11.52676 | 23243 ft | 433 kts | 336° |
| 2026-04-24 12:21 | 46.20052 | 11.50768 | 23681 ft | 437 kts | 336° |
| 2026-04-24 12:21 | 46.22800 | 11.48841 | 24084 ft | 440 kts | 336° |
| 2026-04-24 12:21 | 46.25554 | 11.46906 | 24527 ft | 440 kts | 336° |
| 2026-04-24 12:22 | 46.28325 | 11.44958 | 24884 ft | 444 kts | 336° |
| 2026-04-24 12:22 | 46.31108 | 11.43001 | 25234 ft | 447 kts | 336° |
| 2026-04-24 12:22 | 46.32059 | 11.42331 | 25373 ft | 447 kts | 336° |
| 2026-04-24 12:23 | 46.34256 | 11.40784 | 25690 ft | 448 kts | 336° |
| 2026-04-24 12:23 | 46.37075 | 11.38796 | 26040 ft | 451 kts | 336° |
| 2026-04-24 12:23 | 46.39871 | 11.36821 | 26374 ft | 453 kts | 336° |
| 2026-04-24 12:23 | 46.42717 | 11.34810 | 26673 ft | 456 kts | 336° |
| 2026-04-24 12:24 | 46.45581 | 11.32784 | 26975 ft | 459 kts | 336° |
| 2026-04-24 12:24 | 46.48464 | 11.30780 | 27343 ft | 460 kts | 338° |
| 2026-04-24 12:24 | 46.51388 | 11.28873 | 27670 ft | 461 kts | 339° |
| 2026-04-24 12:24 | 46.54330 | 11.27010 | 27971 ft | 463 kts | 339° |
| 2026-04-24 12:25 | 46.57294 | 11.25141 | 28284 ft | 466 kts | 339° |
| 2026-04-24 12:25 | 46.60272 | 11.23252 | 28667 ft | 466 kts | 339° |
| 2026-04-24 12:25 | 46.63226 | 11.21361 | 29230 ft | 463 kts | 339° |
| 2026-04-24 12:25 | 46.66176 | 11.19457 | 29737 ft | 461 kts | 339° |
| 2026-04-24 12:26 | 46.69106 | 11.17559 | 30143 ft | 461 kts | 339° |
| 2026-04-24 12:26 | 46.72004 | 11.15677 | 30507 ft | 460 kts | 339° |
| 2026-04-24 12:26 | 46.74917 | 11.13784 | 30897 ft | 458 kts | 339° |
| 2026-04-24 12:26 | 46.77829 | 11.11890 | 31264 ft | 458 kts | 339° |
| 2026-04-24 12:27 | 46.80744 | 11.09993 | 31670 ft | 457 kts | 339° |
| 2026-04-24 12:27 | 46.83656 | 11.08097 | 32046 ft | 456 kts | 339° |
| 2026-04-24 12:27 | 46.86515 | 11.06231 | 32390 ft | 455 kts | 338° |
| 2026-04-24 12:27 | 46.89444 | 11.04320 | 32737 ft | 455 kts | 338° |
| 2026-04-24 12:28 | 46.92294 | 11.02459 | 33093 ft | 454 kts | 338° |
| 2026-04-24 12:28 | 46.95186 | 11.00569 | 33421 ft | 454 kts | 338° |
| 2026-04-24 12:28 | 46.98066 | 10.98683 | 33783 ft | 453 kts | 338° |
| 2026-04-24 12:28 | 47.00942 | 10.96798 | 34139 ft | 452 kts | 338° |
| 2026-04-24 12:29 | 47.03810 | 10.94916 | 34430 ft | 451 kts | 338° |
| 2026-04-24 12:29 | 47.06674 | 10.93034 | 34728 ft | 451 kts | 338° |
| 2026-04-24 12:29 | 47.09534 | 10.91152 | 35042 ft | 449 kts | 338° |
| 2026-04-24 12:29 | 47.12385 | 10.89274 | 35343 ft | 449 kts | 337° |
| 2026-04-24 12:30 | 47.15237 | 10.87393 | 35615 ft | 448 kts | 337° |
| 2026-04-24 12:30 | 47.18081 | 10.85515 | 35896 ft | 447 kts | 337° |
| 2026-04-24 12:30 | 47.20845 | 10.83689 | 36150 ft | 447 kts | 337° |
| 2026-04-24 12:31 | 47.26567 | 10.79900 | 36156 ft | 452 kts | 337° |
| 2026-04-24 12:31 | 47.32258 | 10.76122 | 36157 ft | 448 kts | 337° |
| 2026-04-24 12:32 | 47.37928 | 10.72342 | 36154 ft | 445 kts | 336° |
| 2026-04-24 12:32 | 47.43185 | 10.67541 | 36163 ft | 445 kts | 326° |
| 2026-04-24 12:33 | 47.48239 | 10.62248 | 36160 ft | 445 kts | 326° |
| 2026-04-24 12:33 | 47.53299 | 10.56983 | 36172 ft | 445 kts | 326° |
| 2026-04-24 12:34 | 47.58401 | 10.51728 | 36168 ft | 447 kts | 326° |
| 2026-04-24 12:34 | 47.63490 | 10.46490 | 36179 ft | 448 kts | 326° |
| 2026-04-24 12:35 | 47.68622 | 10.41192 | 36176 ft | 450 kts | 326° |
| 2026-04-24 12:35 | 47.73640 | 10.35999 | 36177 ft | 451 kts | 326° |
| 2026-04-24 12:36 | 47.78602 | 10.30354 | 36178 ft | 453 kts | 322° |
| 2026-04-24 12:36 | 47.83451 | 10.24353 | 36184 ft | 453 kts | 321° |
| 2026-04-24 12:37 | 47.88298 | 10.18343 | 36189 ft | 453 kts | 321° |
| 2026-04-24 12:37 | 47.93180 | 10.12338 | 36183 ft | 453 kts | 321° |
| 2026-04-24 12:38 | 47.98029 | 10.06389 | 36182 ft | 453 kts | 321° |
| 2026-04-24 12:38 | 48.02897 | 10.00403 | 36184 ft | 452 kts | 321° |
| 2026-04-24 12:39 | 48.12598 | 9.88427 | 36158 ft | 451 kts | 321° |
| 2026-04-24 12:40 | 48.17434 | 9.82430 | 36153 ft | 451 kts | 321° |
| 2026-04-24 12:40 | 48.22268 | 9.76422 | 36150 ft | 451 kts | 321° |
| 2026-04-24 12:41 | 48.27062 | 9.70449 | 36161 ft | 450 kts | 320° |
| 2026-04-24 12:41 | 48.31874 | 9.64439 | 36163 ft | 450 kts | 320° |
| 2026-04-24 12:42 | 48.36674 | 9.58397 | 36165 ft | 449 kts | 320° |
| 2026-04-24 12:42 | 48.41431 | 9.52307 | 36173 ft | 449 kts | 319° |
| 2026-04-24 12:43 | 48.45386 | 9.47222 | 36177 ft | 450 kts | 319° |
| 2026-04-24 12:43 | 48.50146 | 9.41095 | 36180 ft | 450 kts | 319° |
| 2026-04-24 12:44 | 48.54916 | 9.34947 | 36192 ft | 450 kts | 319° |
| 2026-04-24 12:44 | 48.59679 | 9.28794 | 36189 ft | 451 kts | 319° |
| 2026-04-24 12:45 | 48.64443 | 9.22626 | 36185 ft | 451 kts | 319° |
| 2026-04-24 12:45 | 48.69217 | 9.16427 | 36184 ft | 452 kts | 319° |
| 2026-04-24 12:46 | 48.73963 | 9.10249 | 36192 ft | 453 kts | 319° |
| 2026-04-24 12:46 | 48.78743 | 9.04010 | 36176 ft | 453 kts | 318° |
| 2026-04-24 12:47 | 48.83523 | 8.97753 | 36181 ft | 453 kts | 318° |
| 2026-04-24 12:47 | 48.88297 | 8.91491 | 36186 ft | 453 kts | 318° |
| 2026-04-24 12:48 | 48.93065 | 8.85219 | 36187 ft | 453 kts | 318° |
| 2026-04-24 12:48 | 48.97804 | 8.78969 | 36193 ft | 453 kts | 318° |
| 2026-04-24 12:49 | 49.02560 | 8.72681 | 36189 ft | 453 kts | 317° |
| 2026-04-24 12:49 | 49.07320 | 8.66369 | 36193 ft | 452 kts | 317° |
| 2026-04-24 12:50 | 49.12073 | 8.60049 | 36190 ft | 453 kts | 317° |
| 2026-04-24 12:50 | 49.16821 | 8.53721 | 36196 ft | 452 kts | 317° |
| 2026-04-24 12:51 | 49.21538 | 8.47417 | 36194 ft | 452 kts | 317° |
| 2026-04-24 12:51 | 49.26276 | 8.41067 | 36198 ft | 452 kts | 317° |
| 2026-04-24 12:52 | 49.31007 | 8.34712 | 36212 ft | 452 kts | 317° |
| 2026-04-24 12:52 | 49.35735 | 8.28344 | 36206 ft | 452 kts | 317° |
| 2026-04-24 12:53 | 49.40429 | 8.22004 | 36205 ft | 452 kts | 317° |
| 2026-04-24 12:53 | 49.45148 | 8.15612 | 36204 ft | 452 kts | 316° |
| 2026-04-24 12:54 | 49.49867 | 8.09205 | 36209 ft | 452 kts | 316° |
| 2026-04-24 12:54 | 49.54570 | 8.02801 | 36207 ft | 452 kts | 316° |
| 2026-04-24 12:55 | 49.59269 | 7.96333 | 36203 ft | 451 kts | 312° |
| 2026-04-24 12:55 | 49.62813 | 7.88545 | 36199 ft | 445 kts | 292° |
| 2026-04-24 12:56 | 49.65057 | 7.79680 | 36202 ft | 444 kts | 289° |
| 2026-04-24 12:56 | 49.67223 | 7.70754 | 36209 ft | 444 kts | 289° |
| 2026-04-24 12:57 | 49.69397 | 7.61863 | 36205 ft | 444 kts | 289° |
| 2026-04-24 12:57 | 49.71598 | 7.52923 | 36207 ft | 444 kts | 289° |
| 2026-04-24 12:58 | 49.73795 | 7.43998 | 36228 ft | 444 kts | 289° |
| 2026-04-24 12:58 | 49.75985 | 7.35071 | 36233 ft | 444 kts | 288° |
| 2026-04-24 12:59 | 49.78168 | 7.26136 | 36230 ft | 444 kts | 288° |
| 2026-04-24 12:59 | 49.80344 | 7.17187 | 36235 ft | 443 kts | 288° |
| 2026-04-24 13:00 | 49.82496 | 7.08298 | 36239 ft | 443 kts | 288° |
| 2026-04-24 13:00 | 49.84647 | 6.99344 | 36220 ft | 444 kts | 287° |
| 2026-04-24 13:01 | 49.86791 | 6.90363 | 36208 ft | 443 kts | 287° |
| 2026-04-24 13:01 | 49.88952 | 6.81330 | 35517 ft | 450 kts | 288° |
| 2026-04-24 13:01 | 49.90024 | 6.76839 | 34854 ft | 449 kts | 288° |
| 2026-04-24 13:02 | 49.91108 | 6.72289 | 34106 ft | 451 kts | 288° |
| 2026-04-24 13:02 | 49.92196 | 6.67713 | 33269 ft | 452 kts | 288° |
| 2026-04-24 13:02 | 49.93287 | 6.63114 | 32482 ft | 453 kts | 288° |
| 2026-04-24 13:02 | 49.94378 | 6.58501 | 31700 ft | 454 kts | 288° |
| 2026-04-24 13:03 | 49.95466 | 6.53893 | 30909 ft | 455 kts | 288° |
| 2026-04-24 13:03 | 49.96539 | 6.49338 | 30061 ft | 456 kts | 288° |
| 2026-04-24 13:03 | 49.97632 | 6.44684 | 29065 ft | 458 kts | 288° |
| 2026-04-24 13:03 | 49.98727 | 6.40015 | 28166 ft | 458 kts | 288° |
| 2026-04-24 13:04 | 49.99809 | 6.35398 | 27536 ft | 452 kts | 288° |
| 2026-04-24 13:04 | 50.00875 | 6.30839 | 26856 ft | 447 kts | 288° |
| 2026-04-24 13:04 | 50.01931 | 6.26309 | 26208 ft | 443 kts | 288° |
| 2026-04-24 13:04 | 50.02970 | 6.21839 | 25575 ft | 438 kts | 288° |
| 2026-04-24 13:05 | 50.04002 | 6.17392 | 24952 ft | 435 kts | 288° |
| 2026-04-24 13:05 | 50.05011 | 6.13031 | 24333 ft | 431 kts | 288° |
| 2026-04-24 13:05 | 50.06022 | 6.08659 | 23657 ft | 429 kts | 287° |
| 2026-04-24 13:05 | 50.07029 | 6.04295 | 22954 ft | 425 kts | 288° |
| 2026-04-24 13:06 | 50.08013 | 5.99973 | 22282 ft | 421 kts | 287° |
| 2026-04-24 13:06 | 50.08884 | 5.95623 | 21542 ft | 419 kts | 284° |
| 2026-04-24 13:06 | 50.09678 | 5.91275 | 20911 ft | 415 kts | 284° |
| 2026-04-24 13:06 | 50.10441 | 5.86938 | 20292 ft | 412 kts | 283° |
| 2026-04-24 13:07 | 50.11190 | 5.82661 | 19670 ft | 408 kts | 283° |
| 2026-04-24 13:07 | 50.11928 | 5.78464 | 19079 ft | 405 kts | 284° |
| 2026-04-24 13:07 | 50.12675 | 5.74240 | 18461 ft | 402 kts | 284° |
| 2026-04-24 13:07 | 50.13420 | 5.70048 | 17777 ft | 400 kts | 284° |
| 2026-04-24 13:08 | 50.14161 | 5.65896 | 17156 ft | 396 kts | 284° |
| 2026-04-24 13:08 | 50.14899 | 5.61764 | 16550 ft | 393 kts | 284° |
| 2026-04-24 13:08 | 50.15628 | 5.57679 | 15937 ft | 390 kts | 285° |
| 2026-04-24 13:09 | 50.17068 | 5.49582 | 14789 ft | 384 kts | 285° |
| 2026-04-24 13:09 | 50.17773 | 5.45614 | 14209 ft | 382 kts | 285° |
| 2026-04-24 13:09 | 50.18479 | 5.41622 | 13561 ft | 381 kts | 285° |
| 2026-04-24 13:09 | 50.19179 | 5.37659 | 12950 ft | 378 kts | 286° |
| 2026-04-24 13:10 | 50.19871 | 5.33727 | 12360 ft | 375 kts | 286° |
| 2026-04-24 13:10 | 50.20561 | 5.29805 | 11776 ft | 373 kts | 286° |
| 2026-04-24 13:10 | 50.21245 | 5.25911 | 11280 ft | 369 kts | 287° |
| 2026-04-24 13:10 | 50.21909 | 5.22115 | 11137 ft | 354 kts | 287° |
| 2026-04-24 13:11 | 50.22547 | 5.18471 | 10970 ft | 343 kts | 287° |
| 2026-04-24 13:11 | 50.23161 | 5.14928 | 10819 ft | 332 kts | 287° |
| 2026-04-24 13:11 | 50.23754 | 5.11509 | 10676 ft | 320 kts | 287° |
| 2026-04-24 13:11 | 50.24414 | 5.08236 | 10494 ft | 314 kts | 295° |
| 2026-04-24 13:12 | 50.25330 | 5.05227 | 10340 ft | 306 kts | 299° |
| 2026-04-24 13:12 | 50.26320 | 5.02325 | 10169 ft | 300 kts | 300° |
| 2026-04-24 13:12 | 50.27274 | 4.99572 | 9961 ft | 294 kts | 300° |
| 2026-04-24 13:12 | 50.28234 | 4.96776 | 9779 ft | 288 kts | 300° |
| 2026-04-24 13:13 | 50.29166 | 4.94023 | 9572 ft | 284 kts | 300° |
| 2026-04-24 13:13 | 50.30076 | 4.91293 | 9377 ft | 281 kts | 298° |
| 2026-04-24 13:13 | 50.30970 | 4.88588 | 9181 ft | 279 kts | 300° |
| 2026-04-24 13:13 | 50.31863 | 4.85881 | 8933 ft | 280 kts | 299° |
| 2026-04-24 13:14 | 50.32747 | 4.83196 | 8624 ft | 281 kts | 300° |
| 2026-04-24 13:14 | 50.33636 | 4.80482 | 8338 ft | 279 kts | 299° |
| 2026-04-24 13:14 | 50.34519 | 4.77777 | 8045 ft | 278 kts | 299° |
| 2026-04-24 13:14 | 50.35400 | 4.75074 | 7756 ft | 278 kts | 299° |
| 2026-04-24 13:15 | 50.36276 | 4.72376 | 7457 ft | 278 kts | 298° |
| 2026-04-24 13:15 | 50.37120 | 4.69638 | 7164 ft | 281 kts | 290° |
| 2026-04-24 13:15 | 50.37354 | 4.66601 | 6898 ft | 284 kts | 269° |
| 2026-04-24 13:15 | 50.37177 | 4.63544 | 6622 ft | 285 kts | 265° |
| 2026-04-24 13:16 | 50.36944 | 4.60446 | 6299 ft | 286 kts | 264° |
| 2026-04-24 13:16 | 50.36755 | 4.58053 | 6173 ft | 283 kts | 263° |
| 2026-04-24 13:16 | 50.36669 | 4.57019 | 6077 ft | 282 kts | 264° |
| 2026-04-24 13:17 | 50.36420 | 4.53987 | 5874 ft | 278 kts | 264° |
| 2026-04-24 13:17 | 50.36175 | 4.51002 | 5661 ft | 275 kts | 264° |
| 2026-04-24 13:17 | 50.35933 | 4.48048 | 5460 ft | 272 kts | 264° |
| 2026-04-24 13:17 | 50.35692 | 4.45123 | 5259 ft | 269 kts | 264° |
| 2026-04-24 13:18 | 50.35456 | 4.42235 | 5052 ft | 266 kts | 264° |
| 2026-04-24 13:18 | 50.35224 | 4.39411 | 4840 ft | 263 kts | 264° |
| 2026-04-24 13:18 | 50.34990 | 4.36593 | 4636 ft | 260 kts | 264° |
| 2026-04-24 13:18 | 50.34757 | 4.33796 | 4431 ft | 259 kts | 264° |
| 2026-04-24 13:19 | 50.34614 | 4.30971 | 4143 ft | 260 kts | 272° |
| 2026-04-24 13:19 | 50.34636 | 4.28160 | 3842 ft | 257 kts | 272° |
| 2026-04-24 13:19 | 50.34762 | 4.25404 | 3587 ft | 251 kts | 289° |
| 2026-04-24 13:19 | 50.35588 | 4.23116 | 3361 ft | 236 kts | 319° |
| 2026-04-24 13:20 | 50.36939 | 4.21831 | 3096 ft | 220 kts | 348° |
| 2026-04-24 13:20 | 50.38400 | 4.21827 | 2805 ft | 205 kts | 19° |
| 2026-04-24 13:20 | 50.39518 | 4.23039 | 2517 ft | 194 kts | 56° |
| 2026-04-24 13:20 | 50.40092 | 4.24851 | 2566 ft | 180 kts | 64° |
| 2026-04-24 13:21 | 50.40591 | 4.26651 | 2420 ft | 179 kts | 66° |
| 2026-04-24 13:21 | 50.41083 | 4.28384 | 2387 ft | 168 kts | 63° |
| 2026-04-24 13:21 | 50.41543 | 4.29995 | 2395 ft | 161 kts | 64° |
| 2026-04-24 13:21 | 50.42007 | 4.31589 | 2312 ft | 160 kts | 63° |
| 2026-04-24 13:22 | 50.42461 | 4.33144 | 2152 ft | 152 kts | 63° |
| 2026-04-24 13:22 | 50.42884 | 4.34613 | 1959 ft | 143 kts | 63° |
| 2026-04-24 13:22 | 50.43296 | 4.36040 | 1817 ft | 145 kts | 63° |
| 2026-04-24 13:22 | 50.43715 | 4.37468 | 1552 ft | 144 kts | 62° |
| 2026-04-24 13:23 | 50.44129 | 4.38892 | 1285 ft | 141 kts | 63° |
| 2026-04-24 13:23 | 50.44534 | 4.40276 | 1100 ft | 139 kts | 63° |
| 2026-04-24 13:23 | 50.44936 | 4.41662 | 927 ft | 140 kts | 64° |
| 2026-04-24 13:23 | 50.45341 | 4.43058 | 762 ft | 140 kts | 63° |
| 2026-04-24 13:24 | 50.45741 | 4.44446 | 635 ft | 139 kts | 63° |
| 2026-04-24 13:24 | 50.46091 | 4.45645 | 618 ft | 93 kts | 65° |
| 2026-04-24 13:24 | 50.46275 | 4.46283 | 614 ft | 48 kts | 65° |
| 2026-04-24 13:24 | 50.46386 | 4.46662 | 615 ft | 27 kts | 65° |
| 2026-04-24 13:25 | 50.46457 | 4.46868 | 617 ft | 17 kts | 38° |
| 2026-04-24 13:25 | 50.46566 | 4.46853 | 617 ft | 16 kts | 335° |
| 2026-04-24 13:25 | 50.46670 | 4.46808 | 612 ft | 16 kts | 26° |
| 2026-04-24 13:25 | 50.46724 | 4.46951 | 614 ft | 15 kts | 65° |
| 2026-04-24 13:26 | 50.46777 | 4.46963 | 615 ft | 10 kts | 334° |
| 2026-04-24 13:26 | 50.46819 | 4.46932 | 620 ft | 2 kts | 335° |
| 2026-04-24 13:26 | 50.46823 | 4.46930 | 618 ft | 0 kts | 335° |